sensor_id;sensor_type;location;lat;lon;timestamp;pressure;altitude;pressure_sealevel;temperature
70050;BMP180;57391;51.306;22.680;2022-11-02T00:00:53;99807.40;;;11.80
70050;BMP180;57391;51.306;22.680;2022-11-02T00:03:30;99810.20;;;11.80
70050;BMP180;57391;51.306;22.680;2022-11-02T00:05:58;99806.20;;;11.70
70050;BMP180;57391;51.306;22.680;2022-11-02T00:08:25;99807.80;;;11.70
70050;BMP180;57391;51.306;22.680;2022-11-02T00:10:52;99817.40;;;11.66
70050;BMP180;57391;51.306;22.680;2022-11-02T00:13:19;99818.80;;;11.60
70050;BMP180;57391;51.306;22.680;2022-11-02T00:15:47;99822.80;;;11.60
70050;BMP180;57391;51.306;22.680;2022-11-02T00:18:14;99818.60;;;11.60
70050;BMP180;57391;51.306;22.680;2022-11-02T00:20:42;99820.00;;;11.60
70050;BMP180;57391;51.306;22.680;2022-11-02T00:23:11;99820.20;;;11.60
70050;BMP180;57391;51.306;22.680;2022-11-02T00:25:51;99823.00;;;11.60
70050;BMP180;57391;51.306;22.680;2022-11-02T00:28:20;99815.80;;;11.60
70050;BMP180;57391;51.306;22.680;2022-11-02T00:30:47;99820.40;;;11.60
70050;BMP180;57391;51.306;22.680;2022-11-02T00:33:15;99821.60;;;11.60
70050;BMP180;57391;51.306;22.680;2022-11-02T00:35:42;99819.00;;;11.60
70050;BMP180;57391;51.306;22.680;2022-11-02T00:38:16;99814.80;;;11.60
70050;BMP180;57391;51.306;22.680;2022-11-02T00:40:47;99811.20;;;11.60
70050;BMP180;57391;51.306;22.680;2022-11-02T00:43:14;99807.60;;;11.58
70050;BMP180;57391;51.306;22.680;2022-11-02T00:45:41;99805.40;;;11.54
70050;BMP180;57391;51.306;22.680;2022-11-02T00:48:13;99806.60;;;11.52
70050;BMP180;57391;51.306;22.680;2022-11-02T00:50:42;99806.00;;;11.50
70050;BMP180;57391;51.306;22.680;2022-11-02T00:53:10;99812.80;;;11.50
70050;BMP180;57391;51.306;22.680;2022-11-02T00:55:40;99806.80;;;11.52
70050;BMP180;57391;51.306;22.680;2022-11-02T00:58:07;99809.60;;;11.50
70050;BMP180;57391;51.306;22.680;2022-11-02T01:00:34;99810.40;;;11.50
70050;BMP180;57391;51.306;22.680;2022-11-02T01:03:03;99808.20;;;11.50
70050;BMP180;57391;51.306;22.680;2022-11-02T01:05:30;99805.60;;;11.50
70050;BMP180;57391;51.306;22.680;2022-11-02T01:07:57;99810.80;;;11.50
70050;BMP180;57391;51.306;22.680;2022-11-02T01:10:25;99805.60;;;11.50
70050;BMP180;57391;51.306;22.680;2022-11-02T01:12:52;99806.00;;;11.50
70050;BMP180;57391;51.306;22.680;2022-11-02T01:15:19;99807.20;;;11.50
70050;BMP180;57391;51.306;22.680;2022-11-02T01:17:46;99803.60;;;11.50
70050;BMP180;57391;51.306;22.680;2022-11-02T01:20:13;99802.00;;;11.50
70050;BMP180;57391;51.306;22.680;2022-11-02T01:22:41;99799.00;;;11.50
70050;BMP180;57391;51.306;22.680;2022-11-02T01:25:08;99793.80;;;11.50
70050;BMP180;57391;51.306;22.680;2022-11-02T01:27:35;99793.80;;;11.50
70050;BMP180;57391;51.306;22.680;2022-11-02T01:30:04;99788.20;;;11.50
70050;BMP180;57391;51.306;22.680;2022-11-02T01:32:32;99787.60;;;11.50
70050;BMP180;57391;51.306;22.680;2022-11-02T01:34:59;99785.40;;;11.50
70050;BMP180;57391;51.306;22.680;2022-11-02T01:37:26;99787.00;;;11.54
70050;BMP180;57391;51.306;22.680;2022-11-02T01:39:53;99791.80;;;11.50
70050;BMP180;57391;51.306;22.680;2022-11-02T01:42:24;99799.40;;;11.56
70050;BMP180;57391;51.306;22.680;2022-11-02T01:44:52;99796.60;;;11.52
70050;BMP180;57391;51.306;22.680;2022-11-02T01:47:26;99796.80;;;11.54
70050;BMP180;57391;51.306;22.680;2022-11-02T01:50:23;99795.00;;;11.50
70050;BMP180;57391;51.306;22.680;2022-11-02T01:52:53;99793.60;;;11.50
70050;BMP180;57391;51.306;22.680;2022-11-02T01:55:31;99793.40;;;11.50
70050;BMP180;57391;51.306;22.680;2022-11-02T01:58:05;99794.20;;;11.50
70050;BMP180;57391;51.306;22.680;2022-11-02T02:00:33;99794.60;;;11.50
70050;BMP180;57391;51.306;22.680;2022-11-02T02:03:07;99790.40;;;11.50
70050;BMP180;57391;51.306;22.680;2022-11-02T02:05:49;99788.40;;;11.50
70050;BMP180;57391;51.306;22.680;2022-11-02T02:08:22;99783.00;;;11.50
70050;BMP180;57391;51.306;22.680;2022-11-02T02:10:50;99781.60;;;11.50
70050;BMP180;57391;51.306;22.680;2022-11-02T02:13:17;99782.80;;;11.52
70050;BMP180;57391;51.306;22.680;2022-11-02T02:15:55;99786.80;;;11.58
70050;BMP180;57391;51.306;22.680;2022-11-02T02:27:27;99782.60;;;11.60
70050;BMP180;57391;51.306;22.680;2022-11-02T02:30:06;99781.20;;;11.60
70050;BMP180;57391;51.306;22.680;2022-11-02T02:32:42;99780.00;;;11.60
70050;BMP180;57391;51.306;22.680;2022-11-02T02:35:25;99775.40;;;11.60
70050;BMP180;57391;51.306;22.680;2022-11-02T02:38:00;99780.20;;;11.60
70050;BMP180;57391;51.306;22.680;2022-11-02T02:40:35;99776.40;;;11.60
70050;BMP180;57391;51.306;22.680;2022-11-02T02:43:17;99782.20;;;11.60
70050;BMP180;57391;51.306;22.680;2022-11-02T02:46:02;99784.20;;;11.60
70050;BMP180;57391;51.306;22.680;2022-11-02T02:48:35;99788.60;;;11.60
70050;BMP180;57391;51.306;22.680;2022-11-02T02:51:13;99790.40;;;11.60
70050;BMP180;57391;51.306;22.680;2022-11-02T02:53:50;99793.20;;;11.60
70050;BMP180;57391;51.306;22.680;2022-11-02T02:56:22;99801.60;;;11.60
70050;BMP180;57391;51.306;22.680;2022-11-02T02:59:06;99803.40;;;11.60
70050;BMP180;57391;51.306;22.680;2022-11-02T03:01:38;99807.00;;;11.60
70050;BMP180;57391;51.306;22.680;2022-11-02T03:04:11;99809.80;;;11.60
70050;BMP180;57391;51.306;22.680;2022-11-02T03:06:44;99812.00;;;11.60
70050;BMP180;57391;51.306;22.680;2022-11-02T03:09:40;99818.00;;;11.60
70050;BMP180;57391;51.306;22.680;2022-11-02T03:15:39;99827.00;;;11.60
70050;BMP180;57391;51.306;22.680;2022-11-02T03:18:28;99830.60;;;11.60
70050;BMP180;57391;51.306;22.680;2022-11-02T03:21:23;99831.20;;;11.60
70050;BMP180;57391;51.306;22.680;2022-11-02T03:24:07;99834.20;;;11.60
70050;BMP180;57391;51.306;22.680;2022-11-02T03:29:30;99835.20;;;11.60
70050;BMP180;57391;51.306;22.680;2022-11-02T03:34:51;99832.80;;;11.70
70050;BMP180;57391;51.306;22.680;2022-11-02T03:37:47;99834.80;;;11.70
70050;BMP180;57391;51.306;22.680;2022-11-02T03:40:25;99835.00;;;11.70
70050;BMP180;57391;51.306;22.680;2022-11-02T03:42:56;99836.00;;;11.70
70050;BMP180;57391;51.306;22.680;2022-11-02T03:45:39;99836.40;;;11.70
70050;BMP180;57391;51.306;22.680;2022-11-02T03:48:11;99842.40;;;11.70
70050;BMP180;57391;51.306;22.680;2022-11-02T03:50:48;99838.80;;;11.70
70050;BMP180;57391;51.306;22.680;2022-11-02T03:53:36;99841.80;;;11.70
70050;BMP180;57391;51.306;22.680;2022-11-02T03:56:19;99843.20;;;11.70
70050;BMP180;57391;51.306;22.680;2022-11-02T03:58:48;99841.40;;;11.74
70050;BMP180;57391;51.306;22.680;2022-11-02T04:01:18;99839.80;;;11.76
70050;BMP180;57391;51.306;22.680;2022-11-02T04:03:47;99839.60;;;11.80
70050;BMP180;57391;51.306;22.680;2022-11-02T04:06:14;99836.60;;;11.80
70050;BMP180;57391;51.306;22.680;2022-11-02T04:08:45;99839.80;;;11.80
70050;BMP180;57391;51.306;22.680;2022-11-02T04:11:15;99840.60;;;11.80
70050;BMP180;57391;51.306;22.680;2022-11-02T04:14:07;99846.80;;;11.80
70050;BMP180;57391;51.306;22.680;2022-11-02T04:16:53;99848.20;;;11.80
70050;BMP180;57391;51.306;22.680;2022-11-02T04:19:44;99848.00;;;11.80
70050;BMP180;57391;51.306;22.680;2022-11-02T04:22:11;99849.00;;;11.80
70050;BMP180;57391;51.306;22.680;2022-11-02T04:25:05;99843.80;;;11.80
70050;BMP180;57391;51.306;22.680;2022-11-02T04:27:54;99840.40;;;11.80
70050;BMP180;57391;51.306;22.680;2022-11-02T04:30:25;99846.00;;;11.80
70050;BMP180;57391;51.306;22.680;2022-11-02T04:32:53;99846.00;;;11.80
70050;BMP180;57391;51.306;22.680;2022-11-02T04:35:44;99840.00;;;11.80
70050;BMP180;57391;51.306;22.680;2022-11-02T04:38:12;99839.00;;;11.80
70050;BMP180;57391;51.306;22.680;2022-11-02T04:40:59;99837.80;;;11.80
70050;BMP180;57391;51.306;22.680;2022-11-02T04:43:46;99840.00;;;11.80
70050;BMP180;57391;51.306;22.680;2022-11-02T04:46:14;99841.00;;;11.80
70050;BMP180;57391;51.306;22.680;2022-11-02T04:48:41;99842.00;;;11.82
70050;BMP180;57391;51.306;22.680;2022-11-02T04:51:08;99842.40;;;11.90
70050;BMP180;57391;51.306;22.680;2022-11-02T04:53:36;99838.40;;;11.90
70050;BMP180;57391;51.306;22.680;2022-11-02T04:56:03;99841.00;;;11.90
70050;BMP180;57391;51.306;22.680;2022-11-02T04:58:32;99843.00;;;11.90
70050;BMP180;57391;51.306;22.680;2022-11-02T05:01:10;99842.00;;;11.90
70050;BMP180;57391;51.306;22.680;2022-11-02T05:03:39;99838.80;;;11.90
70050;BMP180;57391;51.306;22.680;2022-11-02T05:06:10;99837.80;;;11.90
70050;BMP180;57391;51.306;22.680;2022-11-02T05:08:37;99841.80;;;11.90
70050;BMP180;57391;51.306;22.680;2022-11-02T05:11:05;99843.80;;;11.90
70050;BMP180;57391;51.306;22.680;2022-11-02T05:13:32;99842.80;;;11.90
70050;BMP180;57391;51.306;22.680;2022-11-02T05:16:00;99850.40;;;11.90
70050;BMP180;57391;51.306;22.680;2022-11-02T05:18:28;99847.60;;;11.90
70050;BMP180;57391;51.306;22.680;2022-11-02T05:20:59;99853.20;;;11.90
70050;BMP180;57391;51.306;22.680;2022-11-02T05:23:28;99849.00;;;11.90
70050;BMP180;57391;51.306;22.680;2022-11-02T05:25:57;99853.00;;;11.90
70050;BMP180;57391;51.306;22.680;2022-11-02T05:28:27;99849.80;;;11.90
70050;BMP180;57391;51.306;22.680;2022-11-02T05:30:57;99851.60;;;11.90
70050;BMP180;57391;51.306;22.680;2022-11-02T05:33:28;99855.40;;;11.90
70050;BMP180;57391;51.306;22.680;2022-11-02T05:35:57;99858.80;;;11.90
70050;BMP180;57391;51.306;22.680;2022-11-02T05:38:27;99868.20;;;11.90
70050;BMP180;57391;51.306;22.680;2022-11-02T05:40:57;99876.80;;;11.90
70050;BMP180;57391;51.306;22.680;2022-11-02T05:43:27;99878.60;;;11.90
70050;BMP180;57391;51.306;22.680;2022-11-02T05:46:00;99878.00;;;11.90
70050;BMP180;57391;51.306;22.680;2022-11-02T05:48:31;99883.40;;;11.90
70050;BMP180;57391;51.306;22.680;2022-11-02T05:51:03;99885.00;;;11.90
70050;BMP180;57391;51.306;22.680;2022-11-02T05:53:31;99884.20;;;11.86
70050;BMP180;57391;51.306;22.680;2022-11-02T05:56:01;99886.40;;;11.80
70050;BMP180;57391;51.306;22.680;2022-11-02T05:58:30;99888.40;;;11.80
70050;BMP180;57391;51.306;22.680;2022-11-02T06:00:59;99887.20;;;11.80
70050;BMP180;57391;51.306;22.680;2022-11-02T06:03:28;99897.60;;;11.80
70050;BMP180;57391;51.306;22.680;2022-11-02T06:06:08;99897.80;;;11.80
70050;BMP180;57391;51.306;22.680;2022-11-02T06:08:37;99906.40;;;11.80
70050;BMP180;57391;51.306;22.680;2022-11-02T06:11:11;99905.80;;;11.80
70050;BMP180;57391;51.306;22.680;2022-11-02T06:13:39;99905.60;;;11.80
70050;BMP180;57391;51.306;22.680;2022-11-02T06:16:10;99914.80;;;11.80
70050;BMP180;57391;51.306;22.680;2022-11-02T06:18:38;99919.00;;;11.80
70050;BMP180;57391;51.306;22.680;2022-11-02T06:21:06;99919.00;;;11.80
70050;BMP180;57391;51.306;22.680;2022-11-02T06:23:33;99917.60;;;11.80
70050;BMP180;57391;51.306;22.680;2022-11-02T06:26:02;99920.20;;;11.78
70050;BMP180;57391;51.306;22.680;2022-11-02T06:28:30;99920.20;;;11.76
70050;BMP180;57391;51.306;22.680;2022-11-02T06:30:58;99924.60;;;11.76
70050;BMP180;57391;51.306;22.680;2022-11-02T06:33:25;99925.40;;;11.80
70050;BMP180;57391;51.306;22.680;2022-11-02T06:35:53;99925.60;;;11.80
70050;BMP180;57391;51.306;22.680;2022-11-02T06:38:21;99931.00;;;11.80
70050;BMP180;57391;51.306;22.680;2022-11-02T06:40:57;99931.00;;;11.80
70050;BMP180;57391;51.306;22.680;2022-11-02T06:43:24;99927.60;;;11.82
70050;BMP180;57391;51.306;22.680;2022-11-02T06:45:58;99932.00;;;11.88
70050;BMP180;57391;51.306;22.680;2022-11-02T06:48:27;99935.60;;;11.90
70050;BMP180;57391;51.306;22.680;2022-11-02T06:50:56;99934.80;;;11.90
70050;BMP180;57391;51.306;22.680;2022-11-02T06:53:24;99940.40;;;11.90
70050;BMP180;57391;51.306;22.680;2022-11-02T06:55:57;99948.20;;;11.90
70050;BMP180;57391;51.306;22.680;2022-11-02T06:58:26;99945.80;;;11.90
70050;BMP180;57391;51.306;22.680;2022-11-02T07:01:04;99942.60;;;11.90
70050;BMP180;57391;51.306;22.680;2022-11-02T07:03:34;99951.20;;;11.90
70050;BMP180;57391;51.306;22.680;2022-11-02T07:06:02;99944.40;;;11.90
70050;BMP180;57391;51.306;22.680;2022-11-02T07:08:29;99945.80;;;12.00
70050;BMP180;57391;51.306;22.680;2022-11-02T07:10:56;99948.60;;;12.00
70050;BMP180;57391;51.306;22.680;2022-11-02T07:13:24;99949.40;;;12.00
70050;BMP180;57391;51.306;22.680;2022-11-02T07:15:53;99954.20;;;12.00
70050;BMP180;57391;51.306;22.680;2022-11-02T07:18:21;99958.40;;;12.06
70050;BMP180;57391;51.306;22.680;2022-11-02T07:20:49;99959.60;;;12.06
70050;BMP180;57391;51.306;22.680;2022-11-02T07:23:16;99955.40;;;12.10
70050;BMP180;57391;51.306;22.680;2022-11-02T07:25:44;99951.40;;;12.10
70050;BMP180;57391;51.306;22.680;2022-11-02T07:28:11;99953.80;;;12.10
70050;BMP180;57391;51.306;22.680;2022-11-02T07:30:38;99955.20;;;12.12
70050;BMP180;57391;51.306;22.680;2022-11-02T07:33:05;99951.60;;;12.10
70050;BMP180;57391;51.306;22.680;2022-11-02T07:35:33;99952.20;;;12.20
70050;BMP180;57391;51.306;22.680;2022-11-02T07:38:03;99951.00;;;12.20
70050;BMP180;57391;51.306;22.680;2022-11-02T07:40:34;99952.80;;;12.20
70050;BMP180;57391;51.306;22.680;2022-11-02T07:43:03;99950.60;;;12.22
70050;BMP180;57391;51.306;22.680;2022-11-02T07:45:52;99950.20;;;12.30
70050;BMP180;57391;51.306;22.680;2022-11-02T07:48:19;99951.40;;;12.30
70050;BMP180;57391;51.306;22.680;2022-11-02T07:50:47;99952.60;;;12.36
70050;BMP180;57391;51.306;22.680;2022-11-02T07:53:14;99954.20;;;12.40
70050;BMP180;57391;51.306;22.680;2022-11-02T07:55:41;99952.60;;;12.40
70050;BMP180;57391;51.306;22.680;2022-11-02T07:58:10;99951.80;;;12.40
70050;BMP180;57391;51.306;22.680;2022-11-02T08:00:41;99950.60;;;12.40
70050;BMP180;57391;51.306;22.680;2022-11-02T08:03:10;99953.60;;;12.40
70050;BMP180;57391;51.306;22.680;2022-11-02T08:05:41;99949.20;;;12.50
70050;BMP180;57391;51.306;22.680;2022-11-02T08:08:15;99952.40;;;12.50
70050;BMP180;57391;51.306;22.680;2022-11-02T08:10:44;99954.80;;;12.50
70050;BMP180;57391;51.306;22.680;2022-11-02T08:13:20;99952.40;;;12.50
70050;BMP180;57391;51.306;22.680;2022-11-02T08:15:52;99952.40;;;12.52
70050;BMP180;57391;51.306;22.680;2022-11-02T08:18:27;99950.20;;;12.60
70050;BMP180;57391;51.306;22.680;2022-11-02T08:20:56;99948.80;;;12.60
70050;BMP180;57391;51.306;22.680;2022-11-02T08:23:25;99950.40;;;12.60
70050;BMP180;57391;51.306;22.680;2022-11-02T08:25:53;99945.20;;;12.60
70050;BMP180;57391;51.306;22.680;2022-11-02T08:28:27;99945.60;;;12.70
70050;BMP180;57391;51.306;22.680;2022-11-02T08:30:58;99945.00;;;12.70
70050;BMP180;57391;51.306;22.680;2022-11-02T08:33:26;99944.20;;;12.70
70050;BMP180;57391;51.306;22.680;2022-11-02T08:36:01;99942.80;;;12.80
70050;BMP180;57391;51.306;22.680;2022-11-02T08:38:31;99938.80;;;12.80
70050;BMP180;57391;51.306;22.680;2022-11-02T08:40:58;99943.60;;;12.90
70050;BMP180;57391;51.306;22.680;2022-11-02T08:43:25;99943.40;;;12.90
70050;BMP180;57391;51.306;22.680;2022-11-02T08:45:57;99944.00;;;12.90
70050;BMP180;57391;51.306;22.680;2022-11-02T08:48:26;99948.20;;;12.98
70050;BMP180;57391;51.306;22.680;2022-11-02T08:50:54;99952.20;;;13.00
70050;BMP180;57391;51.306;22.680;2022-11-02T08:53:22;99954.60;;;13.00
70050;BMP180;57391;51.306;22.680;2022-11-02T08:55:50;99950.20;;;13.00
70050;BMP180;57391;51.306;22.680;2022-11-02T08:58:18;99949.80;;;13.04
70050;BMP180;57391;51.306;22.680;2022-11-02T09:00:45;99946.40;;;13.10
70050;BMP180;57391;51.306;22.680;2022-11-02T09:03:14;99948.40;;;13.10
70050;BMP180;57391;51.306;22.680;2022-11-02T09:05:44;99943.80;;;13.12
70050;BMP180;57391;51.306;22.680;2022-11-02T09:08:18;99942.20;;;13.20
70050;BMP180;57391;51.306;22.680;2022-11-02T09:10:51;99940.20;;;13.20
70050;BMP180;57391;51.306;22.680;2022-11-02T09:13:19;99935.60;;;13.30
70050;BMP180;57391;51.306;22.680;2022-11-02T09:15:56;99929.00;;;13.30
70050;BMP180;57391;51.306;22.680;2022-11-02T09:18:24;99932.60;;;13.32
70050;BMP180;57391;51.306;22.680;2022-11-02T09:20:52;99933.60;;;13.40
70050;BMP180;57391;51.306;22.680;2022-11-02T09:23:21;99934.00;;;13.40
70050;BMP180;57391;51.306;22.680;2022-11-02T09:25:49;99935.00;;;13.40
70050;BMP180;57391;51.306;22.680;2022-11-02T09:28:16;99935.40;;;13.50
70050;BMP180;57391;51.306;22.680;2022-11-02T09:30:44;99934.00;;;13.50
70050;BMP180;57391;51.306;22.680;2022-11-02T09:33:12;99937.60;;;13.50
70050;BMP180;57391;51.306;22.680;2022-11-02T09:35:44;99933.40;;;13.50
70050;BMP180;57391;51.306;22.680;2022-11-02T09:38:12;99935.20;;;13.50
70050;BMP180;57391;51.306;22.680;2022-11-02T09:46:30;99939.40;;;13.60
70050;BMP180;57391;51.306;22.680;2022-11-02T09:49:20;99940.80;;;13.60
70050;BMP180;57391;51.306;22.680;2022-11-02T09:51:50;99939.00;;;13.60
70050;BMP180;57391;51.306;22.680;2022-11-02T09:54:31;99935.20;;;13.60
70050;BMP180;57391;51.306;22.680;2022-11-02T09:57:30;99937.00;;;13.60
70050;BMP180;57391;51.306;22.680;2022-11-02T10:00:00;99936.60;;;13.60
70050;BMP180;57391;51.306;22.680;2022-11-02T10:02:54;99939.20;;;13.60
70050;BMP180;57391;51.306;22.680;2022-11-02T10:05:46;99942.40;;;13.68
70050;BMP180;57391;51.306;22.680;2022-11-02T10:11:41;99939.20;;;13.70
70050;BMP180;57391;51.306;22.680;2022-11-02T10:19:42;99944.40;;;13.70
70050;BMP180;57391;51.306;22.680;2022-11-02T10:22:14;99950.40;;;13.70
70050;BMP180;57391;51.306;22.680;2022-11-02T10:24:46;99947.40;;;13.72
70050;BMP180;57391;51.306;22.680;2022-11-02T10:27:25;99952.20;;;13.76
70050;BMP180;57391;51.306;22.680;2022-11-02T10:32:39;99952.20;;;13.80
70050;BMP180;57391;51.306;22.680;2022-11-02T10:35:42;99946.00;;;13.80
70050;BMP180;57391;51.306;22.680;2022-11-02T10:44:39;99954.60;;;14.00
70050;BMP180;57391;51.306;22.680;2022-11-02T10:47:20;99956.60;;;14.08
70050;BMP180;57391;51.306;22.680;2022-11-02T10:52:41;99953.80;;;14.20
70050;BMP180;57391;51.306;22.680;2022-11-02T10:57:47;99962.00;;;14.24
70050;BMP180;57391;51.306;22.680;2022-11-02T11:00:35;99961.20;;;14.30
70050;BMP180;57391;51.306;22.680;2022-11-02T11:03:11;99959.60;;;14.32
70050;BMP180;57391;51.306;22.680;2022-11-02T11:08:44;99956.40;;;14.50
70050;BMP180;57391;51.306;22.680;2022-11-02T11:11:23;99955.00;;;14.60
70050;BMP180;57391;51.306;22.680;2022-11-02T11:16:52;99953.40;;;14.80
70050;BMP180;57391;51.306;22.680;2022-11-02T11:21:58;99948.60;;;15.00
70050;BMP180;57391;51.306;22.680;2022-11-02T11:24:32;99951.80;;;15.20
70050;BMP180;57391;51.306;22.680;2022-11-02T11:27:21;99951.20;;;15.36
70050;BMP180;57391;51.306;22.680;2022-11-02T11:29:57;99950.80;;;15.50
70050;BMP180;57391;51.306;22.680;2022-11-02T11:32:35;99951.00;;;15.50
70050;BMP180;57391;51.306;22.680;2022-11-02T11:35:15;99949.40;;;15.60
70050;BMP180;57391;51.306;22.680;2022-11-02T11:37:57;99953.40;;;15.60
70050;BMP180;57391;51.306;22.680;2022-11-02T11:40:31;99955.60;;;15.60
70050;BMP180;57391;51.306;22.680;2022-11-02T11:43:03;99956.80;;;15.60
70050;BMP180;57391;51.306;22.680;2022-11-02T11:45:32;99961.20;;;15.50
70050;BMP180;57391;51.306;22.680;2022-11-02T11:50:47;99960.80;;;15.40
70050;BMP180;57391;51.306;22.680;2022-11-02T11:53:25;99957.80;;;15.40
70050;BMP180;57391;51.306;22.680;2022-11-02T11:55:56;99957.00;;;15.40
70050;BMP180;57391;51.306;22.680;2022-11-02T11:58:50;99953.80;;;15.40
70050;BMP180;57391;51.306;22.680;2022-11-02T12:01:20;99952.80;;;15.40
70050;BMP180;57391;51.306;22.680;2022-11-02T12:03:58;99951.20;;;15.40
70050;BMP180;57391;51.306;22.680;2022-11-02T12:07:05;99948.60;;;15.58
70050;BMP180;57391;51.306;22.680;2022-11-02T12:15:30;99935.80;;;16.20
70050;BMP180;57391;51.306;22.680;2022-11-02T12:21:09;99942.60;;;16.60
70050;BMP180;57391;51.306;22.680;2022-11-02T12:44:59;99952.00;;;16.94
70050;BMP180;57391;51.306;22.680;2022-11-02T12:47:59;99953.80;;;16.86
70050;BMP180;57391;51.306;22.680;2022-11-02T12:53:33;99951.00;;;16.60
70050;BMP180;57391;51.306;22.680;2022-11-02T12:56:07;99952.00;;;16.50
70050;BMP180;57391;51.306;22.680;2022-11-02T12:58:39;99951.00;;;16.40
70050;BMP180;57391;51.306;22.680;2022-11-02T13:01:38;99950.20;;;16.30
70050;BMP180;57391;51.306;22.680;2022-11-02T13:06:51;99949.40;;;16.30
70050;BMP180;57391;51.306;22.680;2022-11-02T13:12:03;99952.20;;;16.40
70050;BMP180;57391;51.306;22.680;2022-11-02T13:14:48;99950.40;;;16.40
70050;BMP180;57391;51.306;22.680;2022-11-02T13:17:39;99957.40;;;16.30
70050;BMP180;57391;51.306;22.680;2022-11-02T13:20:25;99952.00;;;16.20
70050;BMP180;57391;51.306;22.680;2022-11-02T13:25:58;99951.80;;;16.10
70050;BMP180;57391;51.306;22.680;2022-11-02T13:28:44;99952.80;;;16.10
70050;BMP180;57391;51.306;22.680;2022-11-02T13:31:56;99952.00;;;16.18
70050;BMP180;57391;51.306;22.680;2022-11-02T13:34:39;99948.20;;;16.20
70050;BMP180;57391;51.306;22.680;2022-11-02T13:37:34;99948.00;;;16.26
70050;BMP180;57391;51.306;22.680;2022-11-02T13:51:45;99961.80;;;16.30
70050;BMP180;57391;51.306;22.680;2022-11-02T13:54:50;99962.80;;;16.20
70050;BMP180;57391;51.306;22.680;2022-11-02T13:57:45;99964.60;;;16.10
70050;BMP180;57391;51.306;22.680;2022-11-02T14:03:13;99964.00;;;15.90
70050;BMP180;57391;51.306;22.680;2022-11-02T14:06:08;99966.80;;;15.90
70050;BMP180;57391;51.306;22.680;2022-11-02T14:08:41;99962.80;;;15.80
70050;BMP180;57391;51.306;22.680;2022-11-02T14:19:30;99966.40;;;15.50
70050;BMP180;57391;51.306;22.680;2022-11-02T14:27:01;99966.40;;;15.20
70050;BMP180;57391;51.306;22.680;2022-11-02T14:35:27;99969.20;;;14.90
70050;BMP180;57391;51.306;22.680;2022-11-02T14:49:46;99960.00;;;14.50
70050;BMP180;57391;51.306;22.680;2022-11-02T14:52:32;99957.60;;;14.38
70050;BMP180;57391;51.306;22.680;2022-11-02T14:55:22;99956.80;;;14.30
70050;BMP180;57391;51.306;22.680;2022-11-02T15:03:30;99955.40;;;13.90
70050;BMP180;57391;51.306;22.680;2022-11-02T15:06:11;99958.20;;;13.80
70050;BMP180;57391;51.306;22.680;2022-11-02T15:09:03;99958.60;;;13.70
70050;BMP180;57391;51.306;22.680;2022-11-02T15:11:49;99962.20;;;13.50
70050;BMP180;57391;51.306;22.680;2022-11-02T15:14:58;99966.00;;;13.40
70050;BMP180;57391;51.306;22.680;2022-11-02T15:23:23;99969.80;;;13.20
70050;BMP180;57391;51.306;22.680;2022-11-02T15:25:53;99973.80;;;13.10
70050;BMP180;57391;51.306;22.680;2022-11-02T15:28:25;99978.00;;;13.00
70050;BMP180;57391;51.306;22.680;2022-11-02T15:31:05;99979.20;;;13.00
70050;BMP180;57391;51.306;22.680;2022-11-02T15:33:45;99979.40;;;13.00
70050;BMP180;57391;51.306;22.680;2022-11-02T15:36:36;99979.60;;;13.00
70050;BMP180;57391;51.306;22.680;2022-11-02T15:39:07;99981.20;;;13.10
70050;BMP180;57391;51.306;22.680;2022-11-02T15:50:47;99979.20;;;13.10
70050;BMP180;57391;51.306;22.680;2022-11-02T15:56:38;99983.00;;;13.00
70050;BMP180;57391;51.306;22.680;2022-11-02T16:04:32;99982.20;;;12.90
70050;BMP180;57391;51.306;22.680;2022-11-02T16:07:05;99986.00;;;12.80
70050;BMP180;57391;51.306;22.680;2022-11-02T16:09:37;99986.60;;;12.70
70050;BMP180;57391;51.306;22.680;2022-11-02T16:12:21;99981.20;;;12.70
70050;BMP180;57391;51.306;22.680;2022-11-02T16:15:13;99987.00;;;12.60
70050;BMP180;57391;51.306;22.680;2022-11-02T16:17:41;99987.20;;;12.60
70050;BMP180;57391;51.306;22.680;2022-11-02T16:20:19;99990.80;;;12.60
70050;BMP180;57391;51.306;22.680;2022-11-02T16:22:59;99992.00;;;12.58
70050;BMP180;57391;51.306;22.680;2022-11-02T16:25:56;99993.80;;;12.50
70050;BMP180;57391;51.306;22.680;2022-11-02T16:28:37;99993.80;;;12.42
70050;BMP180;57391;51.306;22.680;2022-11-02T16:31:24;99991.80;;;12.40
70050;BMP180;57391;51.306;22.680;2022-11-02T16:34:11;99998.40;;;12.30
70050;BMP180;57391;51.306;22.680;2022-11-02T16:36:42;100001.00;;;12.30
70050;BMP180;57391;51.306;22.680;2022-11-02T16:39:20;100005.60;;;12.20
70050;BMP180;57391;51.306;22.680;2022-11-02T16:41:51;100009.00;;;12.20
70050;BMP180;57391;51.306;22.680;2022-11-02T16:44:29;100013.00;;;12.20
70050;BMP180;57391;51.306;22.680;2022-11-02T16:52:36;100021.00;;;12.10
70050;BMP180;57391;51.306;22.680;2022-11-02T16:58:07;100019.80;;;12.00
70050;BMP180;57391;51.306;22.680;2022-11-02T17:00:35;100020.60;;;11.90
70050;BMP180;57391;51.306;22.680;2022-11-02T17:03:09;100022.20;;;11.90
70050;BMP180;57391;51.306;22.680;2022-11-02T17:05:40;100024.80;;;11.88
70050;BMP180;57391;51.306;22.680;2022-11-02T17:08:37;100029.20;;;11.80
70050;BMP180;57391;51.306;22.680;2022-11-02T17:11:14;100031.20;;;11.80
70050;BMP180;57391;51.306;22.680;2022-11-02T17:14:09;100029.80;;;11.74
70050;BMP180;57391;51.306;22.680;2022-11-02T17:17:34;100029.80;;;11.70
70050;BMP180;57391;51.306;22.680;2022-11-02T17:22:55;100043.60;;;11.70
70050;BMP180;57391;51.306;22.680;2022-11-02T17:25:41;100044.20;;;11.68
70050;BMP180;57391;51.306;22.680;2022-11-02T17:31:01;100046.60;;;11.66
70050;BMP180;57391;51.306;22.680;2022-11-02T17:33:30;100042.00;;;11.60
70050;BMP180;57391;51.306;22.680;2022-11-02T17:36:05;100040.00;;;11.60
70050;BMP180;57391;51.306;22.680;2022-11-02T17:38:36;100041.40;;;11.60
70050;BMP180;57391;51.306;22.680;2022-11-02T17:41:04;100038.20;;;11.60
70050;BMP180;57391;51.306;22.680;2022-11-02T17:43:53;100041.60;;;11.60
70050;BMP180;57391;51.306;22.680;2022-11-02T17:46:21;100043.00;;;11.60